Flight Track Log - Related Links

Times and Time Zones

All times are in EST time to prevent confusion due to time zone crossing. See the PDT4314 flight status page for this flight to view local times or setup timezone preferences in your user account.

Time Position Orientation Groundspeed Altitude Reporting Facility
EST Latitude Longitude Course Direction KTS MPH feet Rate Location/Type
Sun 05:43:50 PM 39.9000 -75.2333 311° West 115 132 600  Level Philadelphia TRACON
Sun 05:44:08 PM 39.9000 -75.2500 270° West 113 130 1,200 1,385 Climbing Philadelphia TRACON
Sun 05:45:08 PM 39.9167 -75.3000 294° West 147 169 2,400 1,286 Climbing Philadelphia TRACON
Sun 05:46:00 PM 40.0580 -75.4080 323° Northwest  Level FlightAware Approximate
Sun 05:46:14 PM 39.9333 -75.3500 294° West 153 176 3,900  Level Philadelphia TRACON
Sun 05:47:00 PM 40.1184 -75.4684 323° Northwest  Level FlightAware Approximate
Sun 05:47:14 PM 39.9500 -75.4000 294° West 145 167 5,500  Level Philadelphia TRACON
Sun 05:48:00 PM 40.1817 -75.5226 311° West  Level FlightAware Approximate
Sun 05:48:14 PM 39.9667 -75.4333 303° West 148 170 6,900  Level Philadelphia TRACON
Sun 05:49:00 PM 40.2396 -75.5843 311° West  Level FlightAware Approximate
Sun 05:49:14 PM 40.0167 -75.4333 360° North 154 177 8,100  Level Philadelphia TRACON
Sun 05:50:20 PM 40.0500 -75.4833 311° West 164 189 9,000 429 Climbing Philadelphia TRACON
Sun 05:51:20 PM 40.1000 -75.5000 346° North 208 239 9,000 343 Level Philadelphia TRACON
Sun 05:52:40 PM 40.1675 -75.5325 340° North 200 230 9,800 729 Climbing New York Center
Sun 05:53:40 PM 40.2147 -75.5494 345° North 189 217 10,700 950 Climbing New York Center
Sun 05:54:40 PM 40.2508 -75.5872 321° Northwest 161 185 11,700 650 Climbing New York Center
Sun 05:55:40 PM 40.2911 -75.6200 328° Northwest 156 180 12,000 250 Climbing New York Center
Sun 05:56:40 PM 40.3333 -75.6556 327° Northwest 172 198 12,200 750 Climbing New York Center
Sun 05:57:40 PM 40.3675 -75.6881 324° Northwest 172 198 13,500 950 Climbing New York Center
Sun 05:58:40 PM 40.4056 -75.7208 327° Northwest 164 189 14,100 550 Climbing New York Center
Sun 05:59:40 PM 40.4564 -75.7569 332° Northwest 178 205 14,600 650 Climbing New York Center
Sun 06:00:40 PM 40.4942 -75.7953 322° Northwest 178 205 15,400 700 Climbing New York Center
Sun 06:01:40 PM 40.5367 -75.8283 329° Northwest 178 205 16,000 350 Climbing New York Center
Sun 06:02:40 PM 40.5750 -75.8586 329° Northwest 178 205 16,100 50 Climbing New York Center
Sun 06:03:40 PM 40.6189 -75.9028 323° Northwest 189 217 16,100  Level New York Center
Sun 06:04:40 PM 40.6714 -75.9425 330° Northwest 201 231 16,100  Level New York Center
Sun 06:06:40 PM 40.7672 -76.0347 324° Northwest 211 243 16,100  Level New York Center
Sun 06:07:40 PM 40.8236 -76.0772 330° Northwest 216 249 16,100  Level New York Center
Sun 06:08:40 PM 40.8758 -76.1197 328° Northwest 216 249 16,100  Level New York Center
Sun 06:09:40 PM 40.9219 -76.1619 325° Northwest 211 243 16,100  Level New York Center
Sun 06:10:40 PM 40.9783 -76.2075 329° Northwest 211 243 16,100  Level New York Center
Sun 06:11:40 PM 41.0397 -76.2264 347° North 211 243 16,100  Level New York Center
Sun 06:12:40 PM 41.1011 -76.2092 12° North 231 266 16,100  Level New York Center
Sun 06:13:40 PM 41.1697 -76.2092 360° North 238 274 16,100  Level New York Center
Sun 06:14:40 PM 41.2428 -76.2094 360° North 238 274 16,100  Level New York Center
Sun 06:15:40 PM 41.3097 -76.2011 North 238 274 16,100  Level New York Center
Sun 06:16:40 PM 41.3783 -76.2039 358° North 238 274 16,100 -200 Level New York Center
Sun 06:17:40 PM 41.4392 -76.1978 North 238 274 15,700 -900 Descending New York Center
Sun 06:18:40 PM 41.5125 -76.1869 North 252 290 14,300 -1,500 Descending New York Center
Sun 06:19:40 PM 41.5919 -76.1794 North 262 302 12,700 -1,450 Descending New York Center
Sun 06:20:40 PM 41.6625 -76.1825 358° North 256 295 11,400 -1,350 Descending New York Center
Sun 06:21:40 PM 41.7294 -76.1769 North 251 289 10,000 -1,200 Descending New York Center
Sun 06:22:40 PM 41.7903 -76.1706 North 251 289 9,000 -1,050 Descending New York Center
Sun 06:23:40 PM 41.8611 -76.1653 North 235 270 7,900 -1,250 Descending New York Center
Sun 06:24:40 PM 41.9242 -76.1564 North 235 270 6,500 -1,350 Descending New York Center
Sun 06:25:40 PM 41.9889 -76.1533 North 235 270 5,200 -1,000 Descending New York Center
Sun 06:26:40 PM 42.0344 -76.1122 34° Northeast 219 252 4,500 -650 Descending New York Center
Sun 06:27:40 PM 42.0775 -76.0319 54° Northeast 225 259 3,900 -450 Descending New York Center
Sun 06:28:40 PM 42.1256 -75.9800 39° Northeast 227 261 3,600 -450 Descending New York Center
Sun 06:29:40 PM 42.1642 -75.9522 28° Northeast 190 219 3,000 -750 Descending New York Center
Sun 06:30:40 PM 42.1978 -75.9492 North 142 163 2,100 5,000 Descending New York Center
Sun 06:31:40 PM 42.2339 -75.9325 19° North 142 163 13,000 5,450 Climbing New York Center
Sun 06:32:40 PM 42.2722 -75.9131 21° North 142 163 13,000  Level New York Center
Sun 06:33:40 PM 42.3083 -75.8964 19° North 142 163 13,000  Level New York Center
Sun 06:34:40 PM 42.3317 -75.8842 21° North 142 163 13,000  Level New York Center
Sun 06:35:40 PM 42.3317 -75.8842 144° Southeast 142 163 13,000  Level New York Center
Sun 06:36:40 PM 42.3317 -75.8842 144° Southeast 142 163 13,000  Level New York Center
Sun 06:38:00 PM 42.2671 -75.9247 205° Southwest  Level FlightAware Approximate
Sun 06:45:00 PM 42.2000 -75.9667 208° Southwest  Level FlightAware Approximate
Sun 06:46:00 PM 42.2084 -75.9796 208° Southwest  Level Estimated
Sun 06:47:00 PM 42.2084 -75.9796 208° Southwest  Level Estimated

Login

Don't have an account? Register now (free) for customized features, flight alerts, and more!